sensor_id;sensor_type;location;lat;lon;timestamp;P1;durP1;ratioP1;P2;durP2;ratioP2
73266;SDS011;61495;53.400;7.608;2023-09-12T00:01:47;20.13;;;13.35;;
73266;SDS011;61495;53.400;7.608;2023-09-12T00:04:12;17.17;;;12.60;;
73266;SDS011;61495;53.400;7.608;2023-09-12T00:06:38;18.83;;;12.85;;
73266;SDS011;61495;53.400;7.608;2023-09-12T00:09:03;19.60;;;14.48;;
73266;SDS011;61495;53.400;7.608;2023-09-12T00:11:31;18.15;;;12.25;;
73266;SDS011;61495;53.400;7.608;2023-09-12T00:13:57;16.75;;;12.60;;
73266;SDS011;61495;53.400;7.608;2023-09-12T00:16:24;20.90;;;12.70;;
73266;SDS011;61495;53.400;7.608;2023-09-12T00:18:50;17.20;;;13.00;;
73266;SDS011;61495;53.400;7.608;2023-09-12T00:21:15;19.98;;;13.23;;
73266;SDS011;61495;53.400;7.608;2023-09-12T00:23:40;20.65;;;13.85;;
73266;SDS011;61495;53.400;7.608;2023-09-12T00:26:06;22.08;;;14.57;;
73266;SDS011;61495;53.400;7.608;2023-09-12T00:28:31;21.55;;;14.73;;
73266;SDS011;61495;53.400;7.608;2023-09-12T00:30:58;18.45;;;12.30;;
73266;SDS011;61495;53.400;7.608;2023-09-12T00:33:23;20.13;;;15.13;;
73266;SDS011;61495;53.400;7.608;2023-09-12T00:35:49;18.35;;;13.35;;
73266;SDS011;61495;53.400;7.608;2023-09-12T00:38:14;19.42;;;14.15;;
73266;SDS011;61495;53.400;7.608;2023-09-12T00:40:40;18.85;;;14.13;;
73266;SDS011;61495;53.400;7.608;2023-09-12T00:43:05;20.98;;;13.95;;
73266;SDS011;61495;53.400;7.608;2023-09-12T00:45:30;20.20;;;13.88;;
73266;SDS011;61495;53.400;7.608;2023-09-12T00:47:57;21.05;;;13.23;;
73266;SDS011;61495;53.400;7.608;2023-09-12T00:50:23;26.45;;;16.52;;
73266;SDS011;61495;53.400;7.608;2023-09-12T00:52:50;21.27;;;15.65;;
73266;SDS011;61495;53.400;7.608;2023-09-12T00:55:17;25.83;;;16.25;;
73266;SDS011;61495;53.400;7.608;2023-09-12T00:57:42;20.40;;;14.60;;
73266;SDS011;61495;53.400;7.608;2023-09-12T01:00:09;21.70;;;14.45;;
73266;SDS011;61495;53.400;7.608;2023-09-12T01:02:46;23.60;;;15.80;;
73266;SDS011;61495;53.400;7.608;2023-09-12T01:05:13;21.77;;;14.75;;
73266;SDS011;61495;53.400;7.608;2023-09-12T01:07:39;21.95;;;15.27;;
73266;SDS011;61495;53.400;7.608;2023-09-12T01:10:06;23.40;;;16.25;;
73266;SDS011;61495;53.400;7.608;2023-09-12T01:12:33;22.77;;;13.20;;
73266;SDS011;61495;53.400;7.608;2023-09-12T01:14:58;22.48;;;15.82;;
73266;SDS011;61495;53.400;7.608;2023-09-12T01:17:24;23.70;;;16.35;;
73266;SDS011;61495;53.400;7.608;2023-09-12T01:19:50;23.45;;;16.08;;
73266;SDS011;61495;53.400;7.608;2023-09-12T01:25:06;22.98;;;14.90;;
73266;SDS011;61495;53.400;7.608;2023-09-12T01:27:37;22.98;;;14.77;;
73266;SDS011;61495;53.400;7.608;2023-09-12T01:30:10;21.35;;;15.02;;
73266;SDS011;61495;53.400;7.608;2023-09-12T01:32:35;23.02;;;15.20;;
73266;SDS011;61495;53.400;7.608;2023-09-12T01:35:02;21.00;;;13.68;;
73266;SDS011;61495;53.400;7.608;2023-09-12T01:37:29;19.80;;;12.80;;
73266;SDS011;61495;53.400;7.608;2023-09-12T01:39:58;21.58;;;14.40;;
73266;SDS011;61495;53.400;7.608;2023-09-12T01:42:38;22.05;;;15.30;;
73266;SDS011;61495;53.400;7.608;2023-09-12T01:45:23;22.85;;;15.32;;
73266;SDS011;61495;53.400;7.608;2023-09-12T01:48:00;19.52;;;14.48;;
73266;SDS011;61495;53.400;7.608;2023-09-12T01:50:48;24.77;;;15.40;;
73266;SDS011;61495;53.400;7.608;2023-09-12T01:53:35;21.52;;;16.23;;
73266;SDS011;61495;53.400;7.608;2023-09-12T01:56:23;22.00;;;15.82;;
73266;SDS011;61495;53.400;7.608;2023-09-12T01:59:07;24.15;;;16.83;;
73266;SDS011;61495;53.400;7.608;2023-09-12T02:01:33;23.70;;;14.90;;
73266;SDS011;61495;53.400;7.608;2023-09-12T02:03:59;24.63;;;15.60;;
73266;SDS011;61495;53.400;7.608;2023-09-12T02:06:24;24.05;;;17.50;;
73266;SDS011;61495;53.400;7.608;2023-09-12T02:08:49;23.10;;;15.43;;
73266;SDS011;61495;53.400;7.608;2023-09-12T02:11:15;24.90;;;16.42;;
73266;SDS011;61495;53.400;7.608;2023-09-12T02:13:40;19.13;;;14.30;;
73266;SDS011;61495;53.400;7.608;2023-09-12T02:16:06;24.83;;;16.52;;
73266;SDS011;61495;53.400;7.608;2023-09-12T02:18:31;20.65;;;14.57;;
73266;SDS011;61495;53.400;7.608;2023-09-12T02:20:58;20.95;;;15.35;;
73266;SDS011;61495;53.400;7.608;2023-09-12T02:23:24;21.17;;;14.65;;
73266;SDS011;61495;53.400;7.608;2023-09-12T02:25:49;21.35;;;14.52;;
73266;SDS011;61495;53.400;7.608;2023-09-12T02:28:14;20.27;;;13.75;;
73266;SDS011;61495;53.400;7.608;2023-09-12T02:30:40;23.02;;;16.17;;
73266;SDS011;61495;53.400;7.608;2023-09-12T02:33:05;22.75;;;16.13;;
73266;SDS011;61495;53.400;7.608;2023-09-12T02:35:31;23.55;;;15.75;;
73266;SDS011;61495;53.400;7.608;2023-09-12T02:37:56;22.33;;;14.18;;
73266;SDS011;61495;53.400;7.608;2023-09-12T02:40:21;20.00;;;14.43;;
73266;SDS011;61495;53.400;7.608;2023-09-12T02:42:47;23.10;;;14.95;;
73266;SDS011;61495;53.400;7.608;2023-09-12T02:45:12;24.73;;;15.75;;
73266;SDS011;61495;53.400;7.608;2023-09-12T02:47:38;24.15;;;16.48;;
73266;SDS011;61495;53.400;7.608;2023-09-12T02:50:03;26.15;;;16.52;;
73266;SDS011;61495;53.400;7.608;2023-09-12T02:52:29;26.00;;;17.02;;
73266;SDS011;61495;53.400;7.608;2023-09-12T02:54:55;23.48;;;15.68;;
73266;SDS011;61495;53.400;7.608;2023-09-12T02:57:20;22.98;;;16.20;;
73266;SDS011;61495;53.400;7.608;2023-09-12T02:59:46;24.90;;;18.33;;
73266;SDS011;61495;53.400;7.608;2023-09-12T03:02:12;25.10;;;17.65;;
73266;SDS011;61495;53.400;7.608;2023-09-12T03:04:37;24.75;;;16.50;;
73266;SDS011;61495;53.400;7.608;2023-09-12T03:07:03;26.63;;;17.42;;
73266;SDS011;61495;53.400;7.608;2023-09-12T03:09:28;23.65;;;17.05;;
73266;SDS011;61495;53.400;7.608;2023-09-12T03:11:54;26.20;;;17.75;;
73266;SDS011;61495;53.400;7.608;2023-09-12T03:14:19;24.30;;;17.02;;
73266;SDS011;61495;53.400;7.608;2023-09-12T03:16:44;26.02;;;17.10;;
73266;SDS011;61495;53.400;7.608;2023-09-12T03:19:10;26.13;;;17.55;;
73266;SDS011;61495;53.400;7.608;2023-09-12T03:21:35;29.02;;;18.90;;
73266;SDS011;61495;53.400;7.608;2023-09-12T03:24:01;28.58;;;18.30;;
73266;SDS011;61495;53.400;7.608;2023-09-12T03:26:26;26.05;;;17.90;;
73266;SDS011;61495;53.400;7.608;2023-09-12T03:28:51;25.77;;;17.15;;
73266;SDS011;61495;53.400;7.608;2023-09-12T03:31:17;25.40;;;17.23;;
73266;SDS011;61495;53.400;7.608;2023-09-12T03:33:43;27.42;;;19.35;;
73266;SDS011;61495;53.400;7.608;2023-09-12T03:36:14;26.95;;;17.83;;
73266;SDS011;61495;53.400;7.608;2023-09-12T03:38:40;26.63;;;18.52;;
73266;SDS011;61495;53.400;7.608;2023-09-12T03:41:05;25.23;;;17.90;;
73266;SDS011;61495;53.400;7.608;2023-09-12T03:43:31;27.13;;;18.42;;
73266;SDS011;61495;53.400;7.608;2023-09-12T03:45:58;27.33;;;17.98;;
73266;SDS011;61495;53.400;7.608;2023-09-12T03:48:23;25.23;;;16.63;;
73266;SDS011;61495;53.400;7.608;2023-09-12T03:50:48;24.13;;;17.42;;
73266;SDS011;61495;53.400;7.608;2023-09-12T03:53:14;26.70;;;18.10;;
73266;SDS011;61495;53.400;7.608;2023-09-12T03:55:40;22.02;;;15.57;;
73266;SDS011;61495;53.400;7.608;2023-09-12T03:58:05;18.90;;;14.57;;
73266;SDS011;61495;53.400;7.608;2023-09-12T04:00:31;17.00;;;13.35;;
73266;SDS011;61495;53.400;7.608;2023-09-12T04:02:56;18.92;;;13.55;;
73266;SDS011;61495;53.400;7.608;2023-09-12T04:05:21;17.58;;;12.73;;
73266;SDS011;61495;53.400;7.608;2023-09-12T04:07:47;19.33;;;13.13;;
73266;SDS011;61495;53.400;7.608;2023-09-12T04:10:12;19.58;;;14.98;;
73266;SDS011;61495;53.400;7.608;2023-09-12T04:12:38;22.38;;;15.50;;
73266;SDS011;61495;53.400;7.608;2023-09-12T04:15:04;22.90;;;16.00;;
73266;SDS011;61495;53.400;7.608;2023-09-12T04:17:31;20.73;;;14.07;;
73266;SDS011;61495;53.400;7.608;2023-09-12T04:19:56;20.83;;;12.95;;
73266;SDS011;61495;53.400;7.608;2023-09-12T04:22:22;18.38;;;12.30;;
73266;SDS011;61495;53.400;7.608;2023-09-12T04:24:47;19.85;;;13.93;;
73266;SDS011;61495;53.400;7.608;2023-09-12T04:27:13;18.73;;;13.68;;
73266;SDS011;61495;53.400;7.608;2023-09-12T04:29:38;21.80;;;15.13;;
73266;SDS011;61495;53.400;7.608;2023-09-12T04:32:04;23.27;;;17.45;;
73266;SDS011;61495;53.400;7.608;2023-09-12T04:34:30;23.85;;;17.08;;
73266;SDS011;61495;53.400;7.608;2023-09-12T04:36:56;25.30;;;17.55;;
73266;SDS011;61495;53.400;7.608;2023-09-12T04:39:22;28.90;;;18.88;;
73266;SDS011;61495;53.400;7.608;2023-09-12T04:41:48;27.10;;;18.20;;
73266;SDS011;61495;53.400;7.608;2023-09-12T04:44:13;29.60;;;20.23;;
73266;SDS011;61495;53.400;7.608;2023-09-12T04:46:39;29.95;;;20.00;;
73266;SDS011;61495;53.400;7.608;2023-09-12T04:49:04;30.17;;;19.52;;
73266;SDS011;61495;53.400;7.608;2023-09-12T04:51:30;28.80;;;19.55;;
73266;SDS011;61495;53.400;7.608;2023-09-12T04:53:55;27.80;;;18.02;;
73266;SDS011;61495;53.400;7.608;2023-09-12T04:56:20;26.98;;;18.25;;
73266;SDS011;61495;53.400;7.608;2023-09-12T04:58:49;28.08;;;19.23;;
73266;SDS011;61495;53.400;7.608;2023-09-12T05:01:14;27.45;;;18.33;;
73266;SDS011;61495;53.400;7.608;2023-09-12T05:03:40;29.25;;;19.05;;
73266;SDS011;61495;53.400;7.608;2023-09-12T05:06:05;29.35;;;18.90;;
73266;SDS011;61495;53.400;7.608;2023-09-12T05:08:31;30.00;;;20.33;;
73266;SDS011;61495;53.400;7.608;2023-09-12T05:10:56;26.40;;;18.40;;
73266;SDS011;61495;53.400;7.608;2023-09-12T05:13:21;27.13;;;18.92;;
73266;SDS011;61495;53.400;7.608;2023-09-12T05:15:47;25.88;;;18.60;;
73266;SDS011;61495;53.400;7.608;2023-09-12T05:18:12;28.17;;;19.38;;
73266;SDS011;61495;53.400;7.608;2023-09-12T05:20:38;28.80;;;19.48;;
73266;SDS011;61495;53.400;7.608;2023-09-12T05:23:03;30.20;;;20.00;;
73266;SDS011;61495;53.400;7.608;2023-09-12T05:25:29;24.85;;;17.80;;
73266;SDS011;61495;53.400;7.608;2023-09-12T05:27:55;25.50;;;17.98;;
73266;SDS011;61495;53.400;7.608;2023-09-12T05:30:21;26.40;;;17.40;;
73266;SDS011;61495;53.400;7.608;2023-09-12T05:32:47;27.17;;;18.25;;
73266;SDS011;61495;53.400;7.608;2023-09-12T05:35:12;27.50;;;19.02;;
73266;SDS011;61495;53.400;7.608;2023-09-12T05:37:38;27.92;;;19.65;;
73266;SDS011;61495;53.400;7.608;2023-09-12T05:40:03;28.98;;;19.80;;
73266;SDS011;61495;53.400;7.608;2023-09-12T05:42:29;28.23;;;20.17;;
73266;SDS011;61495;53.400;7.608;2023-09-12T05:44:54;32.20;;;20.27;;
73266;SDS011;61495;53.400;7.608;2023-09-12T05:47:21;28.92;;;19.67;;
73266;SDS011;61495;53.400;7.608;2023-09-12T05:49:46;30.23;;;19.85;;
73266;SDS011;61495;53.400;7.608;2023-09-12T05:52:12;33.08;;;21.48;;
73266;SDS011;61495;53.400;7.608;2023-09-12T05:54:38;32.15;;;21.15;;
73266;SDS011;61495;53.400;7.608;2023-09-12T05:57:04;31.50;;;21.08;;
73266;SDS011;61495;53.400;7.608;2023-09-12T05:59:30;34.53;;;22.38;;
73266;SDS011;61495;53.400;7.608;2023-09-12T06:01:55;30.60;;;19.98;;
73266;SDS011;61495;53.400;7.608;2023-09-12T06:04:21;29.55;;;19.83;;
73266;SDS011;61495;53.400;7.608;2023-09-12T06:06:47;29.55;;;18.63;;
73266;SDS011;61495;53.400;7.608;2023-09-12T06:09:12;30.52;;;20.42;;
73266;SDS011;61495;53.400;7.608;2023-09-12T06:11:38;32.63;;;19.83;;
73266;SDS011;61495;53.400;7.608;2023-09-12T06:14:03;33.78;;;22.05;;
73266;SDS011;61495;53.400;7.608;2023-09-12T06:16:29;32.33;;;21.27;;
73266;SDS011;61495;53.400;7.608;2023-09-12T06:18:55;34.95;;;21.15;;
73266;SDS011;61495;53.400;7.608;2023-09-12T06:21:20;33.53;;;20.95;;
73266;SDS011;61495;53.400;7.608;2023-09-12T06:23:57;31.83;;;20.42;;
73266;SDS011;61495;53.400;7.608;2023-09-12T06:26:38;30.05;;;20.58;;
73266;SDS011;61495;53.400;7.608;2023-09-12T06:29:04;31.27;;;21.42;;
73266;SDS011;61495;53.400;7.608;2023-09-12T06:31:30;31.85;;;20.90;;
73266;SDS011;61495;53.400;7.608;2023-09-12T06:33:55;32.78;;;22.17;;
73266;SDS011;61495;53.400;7.608;2023-09-12T06:36:22;33.33;;;21.60;;
73266;SDS011;61495;53.400;7.608;2023-09-12T06:38:49;36.20;;;20.90;;
73266;SDS011;61495;53.400;7.608;2023-09-12T06:41:14;30.77;;;20.35;;
73266;SDS011;61495;53.400;7.608;2023-09-12T06:43:40;31.63;;;21.33;;
73266;SDS011;61495;53.400;7.608;2023-09-12T06:46:05;29.00;;;18.88;;
73266;SDS011;61495;53.400;7.608;2023-09-12T06:48:31;24.75;;;17.55;;
73266;SDS011;61495;53.400;7.608;2023-09-12T06:50:56;29.73;;;20.92;;
73266;SDS011;61495;53.400;7.608;2023-09-12T06:53:22;27.20;;;17.20;;
73266;SDS011;61495;53.400;7.608;2023-09-12T06:55:47;39.58;;;22.23;;
73266;SDS011;61495;53.400;7.608;2023-09-12T06:58:13;36.78;;;21.13;;
73266;SDS011;61495;53.400;7.608;2023-09-12T07:00:38;36.13;;;20.88;;
73266;SDS011;61495;53.400;7.608;2023-09-12T07:03:03;35.95;;;21.48;;
73266;SDS011;61495;53.400;7.608;2023-09-12T07:05:29;32.65;;;19.77;;
73266;SDS011;61495;53.400;7.608;2023-09-12T07:07:54;27.83;;;18.52;;
73266;SDS011;61495;53.400;7.608;2023-09-12T07:10:20;31.23;;;20.15;;
73266;SDS011;61495;53.400;7.608;2023-09-12T07:12:45;34.13;;;21.52;;
73266;SDS011;61495;53.400;7.608;2023-09-12T07:15:11;31.05;;;19.98;;
73266;SDS011;61495;53.400;7.608;2023-09-12T07:17:36;31.17;;;20.52;;
73266;SDS011;61495;53.400;7.608;2023-09-12T07:20:01;35.00;;;21.95;;
73266;SDS011;61495;53.400;7.608;2023-09-12T07:22:27;31.50;;;19.13;;
73266;SDS011;61495;53.400;7.608;2023-09-12T07:24:53;33.38;;;22.83;;
73266;SDS011;61495;53.400;7.608;2023-09-12T07:27:19;33.95;;;21.85;;
73266;SDS011;61495;53.400;7.608;2023-09-12T07:29:44;30.05;;;20.23;;
73266;SDS011;61495;53.400;7.608;2023-09-12T07:32:10;33.53;;;20.88;;
73266;SDS011;61495;53.400;7.608;2023-09-12T07:34:35;34.05;;;20.13;;
73266;SDS011;61495;53.400;7.608;2023-09-12T07:37:02;36.28;;;22.77;;
73266;SDS011;61495;53.400;7.608;2023-09-12T07:39:28;31.67;;;20.83;;
73266;SDS011;61495;53.400;7.608;2023-09-12T07:41:53;27.88;;;19.55;;
73266;SDS011;61495;53.400;7.608;2023-09-12T07:44:19;27.65;;;19.33;;
73266;SDS011;61495;53.400;7.608;2023-09-12T07:46:45;27.60;;;18.52;;
73266;SDS011;61495;53.400;7.608;2023-09-12T07:49:11;26.25;;;18.20;;
73266;SDS011;61495;53.400;7.608;2023-09-12T07:51:36;24.48;;;17.60;;
73266;SDS011;61495;53.400;7.608;2023-09-12T07:54:02;25.55;;;18.23;;
73266;SDS011;61495;53.400;7.608;2023-09-12T07:56:28;31.00;;;20.63;;
73266;SDS011;61495;53.400;7.608;2023-09-12T07:58:53;31.73;;;21.33;;
73266;SDS011;61495;53.400;7.608;2023-09-12T08:01:20;30.38;;;20.52;;
73266;SDS011;61495;53.400;7.608;2023-09-12T08:03:46;32.13;;;20.55;;
73266;SDS011;61495;53.400;7.608;2023-09-12T08:06:12;28.65;;;19.77;;
73266;SDS011;61495;53.400;7.608;2023-09-12T08:08:38;27.92;;;20.05;;
73266;SDS011;61495;53.400;7.608;2023-09-12T08:11:03;32.58;;;20.73;;
73266;SDS011;61495;53.400;7.608;2023-09-12T08:13:29;25.95;;;19.25;;
73266;SDS011;61495;53.400;7.608;2023-09-12T08:15:55;31.33;;;19.75;;
73266;SDS011;61495;53.400;7.608;2023-09-12T08:18:21;28.95;;;19.20;;
73266;SDS011;61495;53.400;7.608;2023-09-12T08:20:47;29.52;;;19.55;;
73266;SDS011;61495;53.400;7.608;2023-09-12T08:23:12;25.30;;;18.08;;
73266;SDS011;61495;53.400;7.608;2023-09-12T08:25:39;31.10;;;17.80;;
73266;SDS011;61495;53.400;7.608;2023-09-12T08:28:05;25.45;;;17.95;;
73266;SDS011;61495;53.400;7.608;2023-09-12T08:30:31;25.40;;;18.05;;
73266;SDS011;61495;53.400;7.608;2023-09-12T08:32:57;25.02;;;16.77;;
73266;SDS011;61495;53.400;7.608;2023-09-12T08:35:23;24.52;;;17.23;;
73266;SDS011;61495;53.400;7.608;2023-09-12T08:37:48;25.88;;;16.40;;
73266;SDS011;61495;53.400;7.608;2023-09-12T08:40:14;22.67;;;16.30;;
73266;SDS011;61495;53.400;7.608;2023-09-12T08:42:42;22.65;;;15.00;;
73266;SDS011;61495;53.400;7.608;2023-09-12T08:45:13;23.25;;;15.05;;
73266;SDS011;61495;53.400;7.608;2023-09-12T08:50:18;19.95;;;14.10;;
73266;SDS011;61495;53.400;7.608;2023-09-12T08:52:46;19.52;;;13.80;;
73266;SDS011;61495;53.400;7.608;2023-09-12T08:55:12;22.52;;;14.20;;
73266;SDS011;61495;53.400;7.608;2023-09-12T08:57:38;17.77;;;12.57;;
73266;SDS011;61495;53.400;7.608;2023-09-12T09:00:07;19.83;;;13.55;;
73266;SDS011;61495;53.400;7.608;2023-09-12T09:02:34;19.50;;;13.63;;
73266;SDS011;61495;53.400;7.608;2023-09-12T09:05:01;19.35;;;14.30;;
73266;SDS011;61495;53.400;7.608;2023-09-12T09:07:30;18.40;;;13.85;;
73266;SDS011;61495;53.400;7.608;2023-09-12T09:10:00;23.42;;;13.57;;
73266;SDS011;61495;53.400;7.608;2023-09-12T09:12:31;20.40;;;13.90;;
73266;SDS011;61495;53.400;7.608;2023-09-12T09:14:57;19.67;;;13.48;;
73266;SDS011;61495;53.400;7.608;2023-09-12T09:17:23;20.17;;;14.18;;
73266;SDS011;61495;53.400;7.608;2023-09-12T09:19:49;19.13;;;13.05;;
73266;SDS011;61495;53.400;7.608;2023-09-12T09:22:15;19.52;;;13.75;;
73266;SDS011;61495;53.400;7.608;2023-09-12T09:24:41;17.65;;;13.07;;
73266;SDS011;61495;53.400;7.608;2023-09-12T09:27:07;16.73;;;12.02;;
73266;SDS011;61495;53.400;7.608;2023-09-12T09:29:32;16.63;;;12.13;;
73266;SDS011;61495;53.400;7.608;2023-09-12T09:32:16;16.05;;;11.27;;
73266;SDS011;61495;53.400;7.608;2023-09-12T09:34:42;16.73;;;11.48;;
73266;SDS011;61495;53.400;7.608;2023-09-12T09:37:08;20.25;;;12.02;;
73266;SDS011;61495;53.400;7.608;2023-09-12T09:39:34;16.33;;;10.77;;
73266;SDS011;61495;53.400;7.608;2023-09-12T09:42:00;15.82;;;10.85;;
73266;SDS011;61495;53.400;7.608;2023-09-12T09:44:26;16.73;;;11.77;;
73266;SDS011;61495;53.400;7.608;2023-09-12T09:46:58;15.68;;;11.07;;
73266;SDS011;61495;53.400;7.608;2023-09-12T09:49:25;12.32;;;9.82;;
73266;SDS011;61495;53.400;7.608;2023-09-12T09:51:51;15.10;;;9.50;;
73266;SDS011;61495;53.400;7.608;2023-09-12T09:54:21;14.98;;;11.30;;
73266;SDS011;61495;53.400;7.608;2023-09-12T09:56:55;17.35;;;11.45;;
73266;SDS011;61495;53.400;7.608;2023-09-12T09:59:23;17.23;;;12.70;;
73266;SDS011;61495;53.400;7.608;2023-09-12T10:01:50;17.45;;;12.43;;
73266;SDS011;61495;53.400;7.608;2023-09-12T10:04:20;18.33;;;13.50;;
73266;SDS011;61495;53.400;7.608;2023-09-12T10:06:47;17.60;;;12.38;;
73266;SDS011;61495;53.400;7.608;2023-09-12T10:09:15;17.60;;;13.68;;
73266;SDS011;61495;53.400;7.608;2023-09-12T10:11:45;18.42;;;13.27;;
73266;SDS011;61495;53.400;7.608;2023-09-12T10:14:14;19.20;;;13.93;;
73266;SDS011;61495;53.400;7.608;2023-09-12T10:16:45;21.25;;;14.43;;
73266;SDS011;61495;53.400;7.608;2023-09-12T10:19:17;23.33;;;15.55;;
73266;SDS011;61495;53.400;7.608;2023-09-12T10:21:49;19.95;;;13.93;;
73266;SDS011;61495;53.400;7.608;2023-09-12T10:24:20;18.60;;;13.75;;
73266;SDS011;61495;53.400;7.608;2023-09-12T10:26:48;21.88;;;13.68;;
73266;SDS011;61495;53.400;7.608;2023-09-12T10:29:15;20.38;;;14.18;;
73266;SDS011;61495;53.400;7.608;2023-09-12T10:31:41;20.73;;;15.38;;
73266;SDS011;61495;53.400;7.608;2023-09-12T10:34:08;19.80;;;15.13;;
73266;SDS011;61495;53.400;7.608;2023-09-12T10:36:40;21.38;;;16.13;;
73266;SDS011;61495;53.400;7.608;2023-09-12T10:39:08;21.95;;;14.50;;
73266;SDS011;61495;53.400;7.608;2023-09-12T10:41:38;20.50;;;14.52;;
73266;SDS011;61495;53.400;7.608;2023-09-12T10:44:12;19.73;;;13.52;;
73266;SDS011;61495;53.400;7.608;2023-09-12T10:46:41;21.75;;;16.65;;
73266;SDS011;61495;53.400;7.608;2023-09-12T10:49:09;23.13;;;15.70;;
73266;SDS011;61495;53.400;7.608;2023-09-12T10:51:39;23.83;;;16.20;;
73266;SDS011;61495;53.400;7.608;2023-09-12T10:54:06;22.55;;;16.88;;
73266;SDS011;61495;53.400;7.608;2023-09-12T10:56:33;22.63;;;13.85;;
73266;SDS011;61495;53.400;7.608;2023-09-12T11:01:48;18.77;;;13.15;;
73266;SDS011;61495;53.400;7.608;2023-09-12T11:06:52;21.50;;;14.00;;
73266;SDS011;61495;53.400;7.608;2023-09-12T11:09:18;19.85;;;14.75;;
73266;SDS011;61495;53.400;7.608;2023-09-12T11:11:47;18.88;;;13.60;;
73266;SDS011;61495;53.400;7.608;2023-09-12T11:14:14;18.50;;;12.90;;
73266;SDS011;61495;53.400;7.608;2023-09-12T11:16:41;19.77;;;14.75;;
73266;SDS011;61495;53.400;7.608;2023-09-12T11:19:17;20.20;;;15.40;;
73266;SDS011;61495;53.400;7.608;2023-09-12T11:21:44;21.90;;;15.43;;
73266;SDS011;61495;53.400;7.608;2023-09-12T11:24:11;20.70;;;14.45;;
73266;SDS011;61495;53.400;7.608;2023-09-12T11:29:43;19.85;;;15.00;;
73266;SDS011;61495;53.400;7.608;2023-09-12T11:32:08;18.13;;;14.27;;
73266;SDS011;61495;53.400;7.608;2023-09-12T11:34:38;18.38;;;13.85;;
73266;SDS011;61495;53.400;7.608;2023-09-12T11:37:06;20.75;;;14.40;;
73266;SDS011;61495;53.400;7.608;2023-09-12T11:39:33;19.17;;;14.75;;
73266;SDS011;61495;53.400;7.608;2023-09-12T11:42:00;18.50;;;14.30;;
73266;SDS011;61495;53.400;7.608;2023-09-12T11:44:27;21.48;;;15.30;;
73266;SDS011;61495;53.400;7.608;2023-09-12T11:46:55;19.70;;;14.30;;
73266;SDS011;61495;53.400;7.608;2023-09-12T11:49:23;18.02;;;13.77;;
73266;SDS011;61495;53.400;7.608;2023-09-12T11:51:52;20.65;;;13.82;;
73266;SDS011;61495;53.400;7.608;2023-09-12T11:54:20;18.95;;;12.32;;
73266;SDS011;61495;53.400;7.608;2023-09-12T11:56:49;17.65;;;12.88;;
73266;SDS011;61495;53.400;7.608;2023-09-12T11:59:15;17.50;;;12.68;;
73266;SDS011;61495;53.400;7.608;2023-09-12T12:01:44;17.15;;;14.13;;
73266;SDS011;61495;53.400;7.608;2023-09-12T12:04:11;18.80;;;14.20;;
73266;SDS011;61495;53.400;7.608;2023-09-12T12:06:36;16.40;;;12.68;;
73266;SDS011;61495;53.400;7.608;2023-09-12T12:09:02;17.48;;;12.27;;
73266;SDS011;61495;53.400;7.608;2023-09-12T12:11:29;16.33;;;11.45;;
73266;SDS011;61495;53.400;7.608;2023-09-12T12:13:55;16.98;;;13.18;;
73266;SDS011;61495;53.400;7.608;2023-09-12T12:16:20;17.63;;;12.43;;
73266;SDS011;61495;53.400;7.608;2023-09-12T12:18:45;16.92;;;12.02;;
73266;SDS011;61495;53.400;7.608;2023-09-12T12:21:11;15.50;;;12.02;;
73266;SDS011;61495;53.400;7.608;2023-09-12T12:23:36;17.00;;;11.27;;
73266;SDS011;61495;53.400;7.608;2023-09-12T12:26:08;15.07;;;11.05;;
73266;SDS011;61495;53.400;7.608;2023-09-12T12:28:37;16.98;;;11.82;;
73266;SDS011;61495;53.400;7.608;2023-09-12T12:31:03;13.85;;;10.02;;
73266;SDS011;61495;53.400;7.608;2023-09-12T12:33:29;14.45;;;11.18;;
73266;SDS011;61495;53.400;7.608;2023-09-12T12:36:04;15.60;;;11.10;;
73266;SDS011;61495;53.400;7.608;2023-09-12T12:38:36;15.70;;;11.65;;
73266;SDS011;61495;53.400;7.608;2023-09-12T12:41:03;15.07;;;10.73;;
73266;SDS011;61495;53.400;7.608;2023-09-12T12:43:29;15.60;;;11.05;;
73266;SDS011;61495;53.400;7.608;2023-09-12T12:45:56;14.13;;;10.20;;
73266;SDS011;61495;53.400;7.608;2023-09-12T12:48:29;13.27;;;10.32;;
73266;SDS011;61495;53.400;7.608;2023-09-12T12:50:56;14.43;;;9.05;;
73266;SDS011;61495;53.400;7.608;2023-09-12T12:53:38;11.65;;;8.02;;
73266;SDS011;61495;53.400;7.608;2023-09-12T12:56:04;12.35;;;8.55;;
73266;SDS011;61495;53.400;7.608;2023-09-12T12:58:29;12.73;;;9.40;;
73266;SDS011;61495;53.400;7.608;2023-09-12T13:00:55;14.80;;;10.43;;
73266;SDS011;61495;53.400;7.608;2023-09-12T13:03:20;12.05;;;9.20;;
73266;SDS011;61495;53.400;7.608;2023-09-12T13:05:45;13.38;;;9.13;;
73266;SDS011;61495;53.400;7.608;2023-09-12T13:08:11;11.80;;;8.15;;
73266;SDS011;61495;53.400;7.608;2023-09-12T13:10:36;10.90;;;8.50;;
73266;SDS011;61495;53.400;7.608;2023-09-12T13:13:02;13.07;;;9.77;;
73266;SDS011;61495;53.400;7.608;2023-09-12T13:15:29;13.43;;;9.70;;
73266;SDS011;61495;53.400;7.608;2023-09-12T13:17:54;11.70;;;8.80;;
73266;SDS011;61495;53.400;7.608;2023-09-12T13:20:20;11.65;;;8.38;;
73266;SDS011;61495;53.400;7.608;2023-09-12T13:22:45;12.30;;;7.70;;
73266;SDS011;61495;53.400;7.608;2023-09-12T13:25:11;13.75;;;8.65;;
73266;SDS011;61495;53.400;7.608;2023-09-12T13:27:36;11.93;;;8.32;;
73266;SDS011;61495;53.400;7.608;2023-09-12T13:30:02;15.63;;;8.93;;
73266;SDS011;61495;53.400;7.608;2023-09-12T13:32:29;10.75;;;7.65;;
73266;SDS011;61495;53.400;7.608;2023-09-12T13:34:55;12.57;;;8.07;;
73266;SDS011;61495;53.400;7.608;2023-09-12T13:37:20;11.88;;;8.30;;
73266;SDS011;61495;53.400;7.608;2023-09-12T13:39:46;11.27;;;7.78;;
73266;SDS011;61495;53.400;7.608;2023-09-12T13:42:14;13.40;;;8.23;;
73266;SDS011;61495;53.400;7.608;2023-09-12T13:44:44;12.75;;;9.45;;
73266;SDS011;61495;53.400;7.608;2023-09-12T13:47:13;13.07;;;8.93;;
73266;SDS011;61495;53.400;7.608;2023-09-12T13:49:38;12.55;;;8.88;;
73266;SDS011;61495;53.400;7.608;2023-09-12T13:52:04;13.57;;;9.57;;
73266;SDS011;61495;53.400;7.608;2023-09-12T13:54:30;12.57;;;8.65;;
73266;SDS011;61495;53.400;7.608;2023-09-12T13:56:56;12.07;;;8.70;;
73266;SDS011;61495;53.400;7.608;2023-09-12T13:59:22;12.90;;;8.98;;
73266;SDS011;61495;53.400;7.608;2023-09-12T14:01:47;11.80;;;8.57;;
73266;SDS011;61495;53.400;7.608;2023-09-12T14:04:13;12.45;;;9.73;;
73266;SDS011;61495;53.400;7.608;2023-09-12T14:06:39;13.30;;;9.23;;
73266;SDS011;61495;53.400;7.608;2023-09-12T14:09:06;11.15;;;8.05;;
73266;SDS011;61495;53.400;7.608;2023-09-12T14:11:31;13.38;;;8.35;;
73266;SDS011;61495;53.400;7.608;2023-09-12T14:13:57;11.80;;;8.40;;
73266;SDS011;61495;53.400;7.608;2023-09-12T14:16:23;10.70;;;8.10;;
73266;SDS011;61495;53.400;7.608;2023-09-12T14:18:48;13.82;;;8.65;;
73266;SDS011;61495;53.400;7.608;2023-09-12T14:21:13;11.93;;;8.20;;
73266;SDS011;61495;53.400;7.608;2023-09-12T14:23:39;12.38;;;9.07;;
73266;SDS011;61495;53.400;7.608;2023-09-12T14:26:04;12.05;;;8.63;;
73266;SDS011;61495;53.400;7.608;2023-09-12T14:28:30;11.38;;;7.93;;
73266;SDS011;61495;53.400;7.608;2023-09-12T14:30:57;15.48;;;8.65;;
73266;SDS011;61495;53.400;7.608;2023-09-12T14:33:22;15.02;;;9.20;;
73266;SDS011;61495;53.400;7.608;2023-09-12T14:35:48;12.85;;;8.60;;